Time;durP1;ratioP1;P1;durP2;ratioP2;P2;SDS_P1;SDS_P2;PMS_P1;PMS_P2;Temp;Humidity;BMP_temperature;BMP_pressure;BME280_temperature;BME280_humidity;BME280_pressure;Samples;Min_cycle;Max_cycle;Signal;HPM_P1;HPM_P2
2022/02/21 00:01:21;;;;;;;11.13;1.38;;;7.00;99.90;;;;;;5074599;28;20055;-33
2022/02/21 00:03:46;;;;;;;13.02;1.50;;;7.00;99.90;;;;;;5060679;28;20082;-31
2022/02/21 00:06:12;;;;;;;23.45;3.40;;;7.00;99.90;;;;;;5075109;28;20112;-36
2022/02/21 00:08:37;;;;;;;10.82;1.38;;;7.00;99.90;;;;;;5069600;28;20029;-39
2022/02/21 00:11:03;;;;;;;9.02;2.10;;;7.00;99.90;;;;;;5072248;28;20032;-35
2022/02/21 00:13:29;;;;;;;8.93;1.88;;;7.00;99.90;;;;;;5068432;28;20028;-35
2022/02/21 00:15:55;;;;;;;11.00;2.03;;;7.00;99.90;;;;;;5075380;28;20019;-32
2022/02/21 00:18:21;;;;;;;13.38;2.00;;;7.00;99.90;;;;;;5075611;28;20082;-36
2022/02/21 00:20:46;;;;;;;8.00;1.70;;;6.90;99.90;;;;;;5067545;28;20025;-31
2022/02/21 00:23:13;;;;;;;14.32;2.20;;;6.90;99.90;;;;;;5060918;28;20032;-33
2022/02/21 00:25:39;;;;;;;14.25;2.13;;;6.90;99.90;;;;;;5068585;28;20442;-30
2022/02/21 00:28:04;;;;;;;24.08;2.47;;;6.80;99.90;;;;;;5072413;28;20099;-31
2022/02/21 00:30:30;;;;;;;21.33;2.80;;;6.80;99.90;;;;;;5071794;28;20060;-36
2022/02/21 00:32:56;;;;;;;12.52;1.98;;;6.80;99.90;;;;;;5066150;28;20045;-33
2022/02/21 00:35:21;;;;;;;14.88;1.88;;;6.70;99.90;;;;;;5071517;28;20024;-31
2022/02/21 00:37:47;;;;;;;15.20;1.98;;;6.60;99.90;;;;;;5071958;28;20024;-43
2022/02/21 00:40:13;;;;;;;12.05;1.63;;;6.30;99.90;;;;;;5071900;28;20052;-31
2022/02/21 00:42:38;;;;;;;10.85;1.80;;;6.10;99.90;;;;;;5068422;28;20020;-35
2022/02/21 00:45:07;;;;;;;15.73;2.15;;;5.90;99.90;;;;;;5071073;28;20035;-35
2022/02/21 00:47:33;;;;;;;16.65;1.85;;;5.70;99.90;;;;;;5072077;28;20048;-39
2022/02/21 00:49:58;;;;;;;14.85;1.75;;;5.50;99.90;;;;;;5071303;28;20067;-37
2022/02/21 00:52:24;;;;;;;21.08;2.58;;;5.40;99.90;;;;;;5071716;28;20034;-34
2022/02/21 00:54:50;;;;;;;9.25;1.70;;;5.40;99.90;;;;;;5070157;28;20031;-33
2022/02/21 00:57:15;;;;;;;14.98;1.67;;;5.40;99.90;;;;;;5070631;28;20028;-34
2022/02/21 00:59:41;;;;;;;13.77;1.88;;;5.50;99.90;;;;;;5068007;28;20090;-32
2022/02/21 01:02:06;;;;;;;18.10;2.15;;;5.60;99.90;;;;;;5074255;28;20044;-35
2022/02/21 01:04:32;;;;;;;10.40;1.67;;;5.60;99.90;;;;;;5074653;28;20353;-34
2022/02/21 01:06:58;;;;;;;16.65;2.22;;;5.80;99.90;;;;;;5074819;28;20058;-37
2022/02/21 01:09:23;;;;;;;9.07;0.90;;;5.70;99.90;;;;;;5074677;28;20031;-34
2022/02/21 01:11:49;;;;;;;10.90;1.67;;;5.80;99.90;;;;;;5073759;28;20111;-39
2022/02/21 01:14:15;;;;;;;15.88;1.60;;;5.80;99.90;;;;;;5074878;28;20085;-34
2022/02/21 01:16:41;;;;;;;13.02;2.85;;;5.90;99.90;;;;;;5073545;28;20017;-32
2022/02/21 01:19:06;;;;;;;7.70;1.45;;;5.90;99.90;;;;;;5075026;28;20031;-33
2022/02/21 01:21:32;;;;;;;14.35;2.13;;;6.00;99.90;;;;;;5072375;28;20043;-38
2022/02/21 01:23:59;;;;;;;13.80;2.15;;;5.90;99.90;;;;;;5074339;28;20028;-35
2022/02/21 01:26:24;;;;;;;7.35;1.67;;;6.00;99.90;;;;;;5072317;28;20031;-36
2022/02/21 01:28:51;;;;;;;8.75;1.92;;;5.90;99.90;;;;;;5075038;28;20104;-35
2022/02/21 01:31:16;;;;;;;10.05;1.52;;;5.80;99.90;;;;;;5074716;28;20401;-36
2022/02/21 01:33:42;;;;;;;11.65;1.40;;;5.80;99.90;;;;;;5074140;28;20051;-35
2022/02/21 01:36:07;;;;;;;14.05;1.83;;;5.80;99.90;;;;;;5074165;28;20435;-35
2022/02/21 01:38:33;;;;;;;14.27;1.60;;;5.80;99.90;;;;;;5068628;28;20032;-34
2022/02/21 01:40:59;;;;;;;11.25;1.13;;;5.90;99.90;;;;;;5074587;28;20052;-38
2022/02/21 01:43:24;;;;;;;14.27;1.58;;;5.90;99.90;;;;;;5074514;28;20033;-32
2022/02/21 01:45:50;;;;;;;10.30;1.42;;;5.90;99.90;;;;;;5072828;28;20177;-33
2022/02/21 01:48:16;;;;;;;6.65;1.15;;;5.90;99.90;;;;;;5067974;28;20020;-34
2022/02/21 01:50:43;;;;;;;11.30;1.50;;;5.90;99.90;;;;;;5073770;28;20036;-33
2022/02/21 01:53:09;;;;;;;14.38;2.05;;;5.90;99.90;;;;;;5074146;28;20423;-31
2022/02/21 01:55:36;;;;;;;7.93;1.60;;;5.90;99.90;;;;;;5063016;28;20132;-35
2022/02/21 01:58:03;;;;;;;16.17;2.35;;;6.00;99.90;;;;;;5073708;28;20028;-31
2022/02/21 02:00:29;;;;;;;18.67;3.15;;;5.90;99.90;;;;;;5074002;28;20020;-30
2022/02/21 02:02:55;;;;;;;15.70;1.45;;;6.00;99.90;;;;;;5073658;28;20032;-32
2022/02/21 02:05:23;;;;;;;14.57;2.67;;;5.90;99.90;;;;;;5073337;28;20024;-33
2022/02/21 02:07:48;;;;;;;6.07;2.28;;;5.90;99.90;;;;;;5066866;28;20517;-30
2022/02/21 02:10:14;;;;;;;15.82;1.55;;;5.90;99.90;;;;;;5067219;28;20107;-54
2022/02/21 02:12:40;;;;;;;9.95;2.10;;;5.90;99.90;;;;;;5074154;28;20481;-30
2022/02/21 02:15:18;;;;;;;10.50;1.13;;;5.90;99.90;;;;;;5073739;28;20025;-36
2022/02/21 02:17:44;;;;;;;12.45;2.15;;;5.80;99.90;;;;;;5070455;28;20025;-36
2022/02/21 02:20:11;;;;;;;11.68;1.00;;;5.90;99.90;;;;;;5071237;28;20024;-36
2022/02/21 02:22:37;;;;;;;29.33;2.22;;;5.90;99.90;;;;;;5073064;28;20024;-34
2022/02/21 02:25:04;;;;;;;8.68;1.27;;;5.90;99.90;;;;;;5066510;28;20028;-30
2022/02/21 02:27:30;;;;;;;14.23;2.30;;;5.90;99.90;;;;;;5069766;28;20070;-30
2022/02/21 02:29:59;;;;;;;7.78;1.15;;;5.90;99.90;;;;;;5073343;28;20439;-30
2022/02/21 02:32:25;;;;;;;11.88;1.77;;;5.80;99.90;;;;;;5054982;28;20405;-33
2022/02/21 02:34:52;;;;;;;7.90;1.60;;;5.80;99.90;;;;;;5073700;28;20027;-34
2022/02/21 02:37:20;;;;;;;6.75;1.65;;;5.90;99.90;;;;;;5071214;28;20495;-30
2022/02/21 02:39:46;;;;;;;7.32;1.98;;;5.90;99.90;;;;;;5073361;28;20103;-32
2022/02/21 02:42:12;;;;;;;12.65;3.17;;;5.90;99.90;;;;;;5073419;28;20107;-31
2022/02/21 02:44:38;;;;;;;9.63;1.40;;;5.90;99.90;;;;;;5071902;28;20028;-29
2022/02/21 02:47:08;;;;;;;12.10;1.88;;;6.00;99.90;;;;;;5072867;28;20578;-51
2022/02/21 02:49:34;;;;;;;15.40;1.77;;;5.90;99.90;;;;;;5073131;28;20028;-29
2022/02/21 02:52:00;;;;;;;11.90;1.63;;;5.90;99.90;;;;;;5070695;28;20155;-31
2022/02/21 02:54:25;;;;;;;12.13;2.10;;;5.90;99.90;;;;;;5073152;28;20104;-34
2022/02/21 02:56:51;;;;;;;11.45;1.75;;;5.90;99.90;;;;;;5072772;28;20511;-30
2022/02/21 02:59:17;;;;;;;9.30;1.58;;;5.80;99.90;;;;;;5072891;28;20020;-32
2022/02/21 03:01:42;;;;;;;9.73;1.33;;;5.50;99.90;;;;;;5072775;28;20124;-31
2022/02/21 03:04:09;;;;;;;11.00;1.85;;;5.40;99.90;;;;;;5059793;28;20024;-32
2022/02/21 03:06:35;;;;;;;13.02;1.83;;;5.30;99.90;;;;;;5054796;28;20024;-33
2022/02/21 03:09:02;;;;;;;5.82;1.70;;;5.40;99.90;;;;;;5072500;28;20480;-33
2022/02/21 03:11:28;;;;;;;15.82;1.55;;;5.40;99.90;;;;;;5072922;28;20017;-37
2022/02/21 03:13:55;;;;;;;18.92;1.48;;;5.40;99.90;;;;;;5058517;28;20397;-30
2022/02/21 03:16:20;;;;;;;17.83;3.75;;;5.40;99.90;;;;;;5069905;28;20024;-35
2022/02/21 03:18:46;;;;;;;9.10;1.27;;;5.40;99.90;;;;;;5072313;28;20031;-33
2022/02/21 03:21:12;;;;;;;8.13;2.40;;;5.40;99.90;;;;;;5066315;28;20024;-31
2022/02/21 03:23:37;;;;;;;13.82;2.17;;;5.50;99.90;;;;;;5052919;28;20031;-31
2022/02/21 03:26:03;;;;;;;17.25;1.77;;;5.50;99.90;;;;;;5061885;28;20036;-30
2022/02/21 03:28:29;;;;;;;11.32;1.55;;;5.50;99.90;;;;;;5071914;28;20028;-30
2022/02/21 03:30:54;;;;;;;8.38;1.17;;;5.50;99.90;;;;;;5054229;28;20043;-30
2022/02/21 03:33:21;;;;;;;10.23;1.85;;;5.50;99.90;;;;;;5072737;28;20028;-34
2022/02/21 03:35:47;;;;;;;13.18;1.73;;;5.50;99.90;;;;;;5072433;28;20032;-35
2022/02/21 03:38:13;;;;;;;13.65;2.00;;;5.50;99.90;;;;;;5063760;28;20548;-31
2022/02/21 03:40:38;;;;;;;15.25;2.20;;;5.50;99.90;;;;;;5072472;28;20029;-34
2022/02/21 03:43:04;;;;;;;14.65;1.20;;;5.60;99.90;;;;;;5072270;28;20024;-39
2022/02/21 03:45:30;;;;;;;21.17;2.22;;;5.50;99.90;;;;;;5072381;28;20076;-37
2022/02/21 03:47:55;;;;;;;18.40;1.90;;;5.60;99.90;;;;;;5072340;28;20029;-46
2022/02/21 03:50:22;;;;;;;6.40;1.00;;;5.60;99.90;;;;;;5071961;28;20041;-32
2022/02/21 03:52:48;;;;;;;8.60;4.03;;;5.60;99.90;;;;;;5072376;28;20538;-30
2022/02/21 03:55:14;;;;;;;12.85;1.70;;;5.70;99.90;;;;;;5067537;28;20029;-30
2022/02/21 03:57:40;;;;;;;12.50;1.33;;;5.70;99.90;;;;;;5072007;28;20044;-32
2022/02/21 04:00:10;;;;;;;10.63;1.58;;;5.70;99.90;;;;;;5072097;28;20108;-32
2022/02/21 04:02:36;;;;;;;11.02;1.70;;;5.70;99.90;;;;;;5072459;28;20056;-31
2022/02/21 04:05:02;;;;;;;22.38;2.38;;;5.60;99.90;;;;;;5070101;28;20033;-32
2022/02/21 04:07:28;;;;;;;6.00;1.10;;;5.60;99.90;;;;;;5070335;28;20017;-31
2022/02/21 04:09:54;;;;;;;15.40;1.58;;;5.50;99.90;;;;;;5072243;28;20039;-35
2022/02/21 04:12:20;;;;;;;15.25;1.55;;;5.50;99.90;;;;;;5072115;28;20025;-33
2022/02/21 04:14:46;;;;;;;15.48;1.95;;;5.50;99.90;;;;;;5072215;28;20032;-33
2022/02/21 04:17:11;;;;;;;11.27;1.90;;;5.50;99.90;;;;;;5065608;28;20025;-32
2022/02/21 04:19:37;;;;;;;10.32;1.50;;;5.50;99.90;;;;;;5072519;28;20043;-37
2022/02/21 04:22:03;;;;;;;12.25;3.15;;;5.50;99.90;;;;;;5071756;28;20024;-32
2022/02/21 04:24:28;;;;;;;4.10;1.42;;;5.50;99.90;;;;;;5071548;28;20116;-37
2022/02/21 04:29:39;;;;;;;5.55;1.55;;;5.50;99.90;;;;;;5070308;28;20113;-34
2022/02/21 04:32:07;;;;;;;10.18;2.15;;;5.60;99.90;;;;;;5062499;28;20044;-34
2022/02/21 04:34:33;;;;;;;;;;;5.60;99.90;;;;;;5072407;28;20021;-32
2022/02/21 04:36:58;;;;;;;13.43;1.73;;;5.60;99.90;;;;;;5060293;28;19909;-34
2022/02/21 04:39:24;;;;;;;10.20;1.30;;;5.60;99.90;;;;;;5041052;28;20120;-33
2022/02/21 04:41:49;;;;;;;12.38;1.75;;;5.60;99.90;;;;;;5074528;28;20035;-32
2022/02/21 04:44:15;;;;;;;9.60;1.33;;;5.60;99.90;;;;;;5068355;28;20021;-32
2022/02/21 04:46:41;;;;;;;12.93;1.75;;;5.60;99.90;;;;;;5055331;28;20387;-36
2022/02/21 04:49:06;;;;;;;4.97;0.75;;;5.60;99.90;;;;;;5059952;28;20064;-67
2022/02/21 04:51:32;;;;;;;6.78;1.45;;;5.60;99.90;;;;;;5072962;28;20040;-37
2022/02/21 04:53:57;;;;;;;13.00;1.80;;;5.60;99.90;;;;;;5060082;28;20025;-34
2022/02/21 04:56:23;;;;;;;10.38;1.27;;;5.60;99.90;;;;;;5061943;28;20058;-38
2022/02/21 04:58:49;;;;;;;20.33;4.72;;;5.60;99.90;;;;;;5055822;28;20075;-40
2022/02/21 05:01:14;;;;;;;9.43;1.27;;;5.70;99.90;;;;;;5057297;28;20059;-34
2022/02/21 05:03:40;;;;;;;8.20;0.93;;;5.70;99.90;;;;;;5058307;28;20347;-31
2022/02/21 05:06:06;;;;;;;11.32;1.40;;;5.70;99.90;;;;;;5069986;28;20024;-40
2022/02/21 05:08:33;;;;;;;4.60;1.58;;;5.70;99.90;;;;;;5074450;28;20031;-36
2022/02/21 05:10:58;;;;;;;12.77;1.75;;;5.70;99.90;;;;;;5075321;28;20548;-37
2022/02/21 05:13:24;;;;;;;20.15;3.78;;;5.60;99.90;;;;;;5075111;28;20120;-31
2022/02/21 05:15:49;;;;;;;9.15;1.77;;;5.50;99.90;;;;;;5065746;28;20079;-33
2022/02/21 05:18:15;;;;;;;17.33;2.28;;;5.50;99.90;;;;;;5074786;28;20017;-33
2022/02/21 05:20:41;;;;;;;8.65;2.00;;;5.50;99.90;;;;;;5075497;28;20028;-34
2022/02/21 05:23:06;;;;;;;7.18;1.10;;;5.50;99.90;;;;;;5074324;28;20489;-31
2022/02/21 05:25:32;;;;;;;6.43;0.98;;;5.50;99.90;;;;;;5074375;28;20063;-31
2022/02/21 05:27:57;;;;;;;17.83;2.45;;;5.40;99.90;;;;;;5059287;28;20029;-32
2022/02/21 05:30:23;;;;;;;6.13;1.52;;;5.40;99.90;;;;;;5059123;28;20036;-35
2022/02/21 05:32:49;;;;;;;11.15;1.35;;;5.40;99.90;;;;;;5075114;28;20381;-35
2022/02/21 05:35:14;;;;;;;5.30;1.13;;;5.40;99.90;;;;;;5073502;28;20021;-35
2022/02/21 05:37:40;;;;;;;11.98;2.28;;;5.30;99.90;;;;;;5074151;28;20481;-36
2022/02/21 05:40:06;;;;;;;16.50;2.10;;;5.30;99.90;;;;;;5074969;28;20489;-33
2022/02/21 05:42:32;;;;;;;15.23;2.63;;;5.30;99.90;;;;;;5074572;28;20087;-49
2022/02/21 05:44:57;;;;;;;25.48;2.20;;;5.40;99.90;;;;;;5070397;28;20048;-33
2022/02/21 05:47:23;;;;;;;8.10;1.58;;;5.40;99.90;;;;;;5056312;28;20082;-34
2022/02/21 05:49:49;;;;;;;7.05;1.48;;;5.30;99.90;;;;;;5054514;28;20032;-30
2022/02/21 05:52:15;;;;;;;16.85;2.65;;;5.30;99.90;;;;;;5066706;28;20041;-31
2022/02/21 05:54:40;;;;;;;14.55;1.63;;;5.40;99.90;;;;;;5074474;28;20033;-38
2022/02/21 05:57:06;;;;;;;19.13;2.75;;;5.50;99.90;;;;;;5064533;28;20023;-36
2022/02/21 05:59:33;;;;;;;10.20;2.25;;;5.50;99.90;;;;;;5054488;28;20025;-31
2022/02/21 06:01:58;;;;;;;13.65;3.13;;;5.40;99.90;;;;;;5064936;28;20035;-32
2022/02/21 06:04:24;;;;;;;9.23;2.47;;;5.40;99.90;;;;;;5074337;28;20028;-37
2022/02/21 06:06:50;;;;;;;13.43;2.30;;;5.40;99.90;;;;;;5063260;28;20025;-34
2022/02/21 06:09:15;;;;;;;20.35;2.80;;;5.40;99.90;;;;;;5063444;28;20028;-30
2022/02/21 06:11:41;;;;;;;6.60;1.95;;;5.50;99.90;;;;;;5073784;28;20051;-32
2022/02/21 06:14:06;;;;;;;7.97;1.33;;;5.50;99.90;;;;;;5074063;28;20017;-30
2022/02/21 06:16:32;;;;;;;16.83;2.13;;;5.50;99.90;;;;;;5071533;28;20031;-30
2022/02/21 06:18:58;;;;;;;12.32;1.20;;;5.50;99.90;;;;;;5074078;28;20074;-34
2022/02/21 06:21:24;;;;;;;17.30;1.25;;;5.50;99.90;;;;;;5073692;28;20016;-33
2022/02/21 06:23:49;;;;;;;9.10;2.08;;;5.50;99.90;;;;;;5062562;28;20459;-33
2022/02/21 06:26:15;;;;;;;9.23;2.05;;;5.60;99.90;;;;;;5073760;28;20064;-34
2022/02/21 06:28:40;;;;;;;10.48;1.40;;;5.60;99.90;;;;;;5073364;28;20028;-32
2022/02/21 06:31:09;;;;;;;13.27;2.08;;;5.70;99.90;;;;;;5073221;28;20020;-35
2022/02/21 06:33:38;;;;;;;9.85;1.25;;;5.70;99.90;;;;;;5064841;28;20025;-31
2022/02/21 06:36:04;;;;;;;16.52;1.77;;;5.70;99.90;;;;;;5062099;28;20037;-35
2022/02/21 06:38:30;;;;;;;8.68;1.85;;;5.60;99.90;;;;;;5073114;28;20017;-39
2022/02/21 06:40:56;;;;;;;15.00;3.08;;;5.70;99.90;;;;;;5073379;28;20036;-34
2022/02/21 06:43:21;;;;;;;9.68;1.63;;;5.70;99.90;;;;;;5069288;28;20025;-36
2022/02/21 06:45:47;;;;;;;19.95;2.15;;;5.60;99.90;;;;;;5067714;28;20499;-36
2022/02/21 06:48:12;;;;;;;10.55;1.20;;;5.60;99.90;;;;;;5060774;28;20522;-32
2022/02/21 06:50:38;;;;;;;8.68;1.05;;;5.60;99.90;;;;;;5070388;28;20048;-31
2022/02/21 06:53:04;;;;;;;18.40;2.20;;;5.60;99.90;;;;;;5071268;28;20024;-37
2022/02/21 06:55:29;;;;;;;14.70;2.40;;;5.50;99.90;;;;;;5071076;28;20021;-32
2022/02/21 06:57:56;;;;;;;7.97;1.40;;;5.50;99.90;;;;;;5072892;28;20028;-33
2022/02/21 07:00:22;;;;;;;10.52;1.50;;;5.50;99.90;;;;;;5071274;28;20021;-32
2022/02/21 07:02:47;;;;;;;8.00;1.90;;;5.50;99.90;;;;;;5067750;28;20028;-34
2022/02/21 07:05:13;;;;;;;10.30;1.92;;;5.50;99.90;;;;;;5072893;28;20021;-34
2022/02/21 07:07:39;;;;;;;9.55;1.55;;;5.50;99.90;;;;;;5072805;28;20055;-32
2022/02/21 07:10:06;;;;;;;10.93;1.23;;;5.50;99.90;;;;;;5072809;28;20024;-36
2022/02/21 07:12:32;;;;;;;13.07;2.17;;;5.60;99.90;;;;;;5062621;28;20021;-32
2022/02/21 07:14:58;;;;;;;14.10;1.52;;;5.70;99.90;;;;;;5052949;28;20029;-34
2022/02/21 07:17:24;;;;;;;15.82;2.03;;;5.70;99.90;;;;;;5071367;28;20090;-32
2022/02/21 07:19:50;;;;;;;13.07;1.42;;;5.80;99.90;;;;;;5072388;28;20484;-33
2022/02/21 07:22:16;;;;;;;10.80;1.35;;;5.80;99.90;;;;;;5072346;28;20111;-33
2022/02/21 07:24:42;;;;;;;13.70;2.35;;;5.90;99.90;;;;;;5072358;28;20111;-33
2022/02/21 07:27:08;;;;;;;13.18;1.25;;;5.80;99.90;;;;;;5072300;28;20046;-31
2022/02/21 07:29:36;;;;;;;15.57;2.50;;;5.90;99.90;;;;;;5072620;28;20024;-31
2022/02/21 07:32:05;;;;;;;17.50;2.05;;;5.90;99.90;;;;;;5066164;28;20043;-36
2022/02/21 07:34:30;;;;;;;6.00;1.95;;;6.00;99.90;;;;;;5072469;28;20024;-38
2022/02/21 07:36:56;;;;;;;14.52;1.45;;;6.10;99.90;;;;;;5070391;28;20027;-50
2022/02/21 07:39:22;;;;;;;12.10;1.58;;;6.20;99.90;;;;;;5072278;28;20103;-38
2022/02/21 07:41:47;;;;;;;10.07;1.20;;;6.30;99.90;;;;;;5071864;28;20037;-30
2022/02/21 07:44:13;;;;;;;6.93;1.95;;;6.40;99.90;;;;;;5072077;28;20032;-35
2022/02/21 07:46:39;;;;;;;15.55;1.73;;;6.60;99.90;;;;;;5071224;28;20521;-31
2022/02/21 07:49:05;;;;;;;13.57;1.30;;;6.60;99.90;;;;;;5072246;28;20021;-30
2022/02/21 07:51:30;;;;;;;17.10;2.20;;;6.60;99.90;;;;;;5066329;28;20040;-35
2022/02/21 07:53:56;;;;;;;7.95;1.95;;;6.60;99.90;;;;;;5072169;28;20507;-31
2022/02/21 07:56:22;;;;;;;20.20;2.97;;;6.60;99.90;;;;;;5071059;28;20104;-34
2022/02/21 07:58:47;;;;;;;20.23;2.90;;;6.60;99.90;;;;;;5072212;28;20027;-34
2022/02/21 08:01:13;;;;;;;11.40;1.33;;;6.50;99.90;;;;;;5054141;28;20059;-31
2022/02/21 08:03:38;;;;;;;17.20;1.80;;;6.60;99.90;;;;;;5071707;28;20028;-30
2022/02/21 08:06:06;;;;;;;13.13;2.22;;;6.60;99.90;;;;;;5069174;28;20020;-33
2022/02/21 08:08:32;;;;;;;21.15;2.22;;;6.60;99.90;;;;;;5075473;28;20520;-34
2022/02/21 08:10:58;;;;;;;13.18;1.63;;;6.60;99.90;;;;;;5075488;28;20012;-32
2022/02/21 08:13:23;;;;;;;13.05;1.33;;;6.50;99.90;;;;;;5075296;28;20025;-36
2022/02/21 08:15:49;;;;;;;10.43;2.53;;;6.40;99.90;;;;;;5075448;28;20488;-31
2022/02/21 08:18:14;;;;;;;16.20;1.85;;;6.20;99.90;;;;;;5075836;28;20020;-32
2022/02/21 08:20:40;;;;;;;15.15;2.20;;;6.10;99.90;;;;;;5075901;28;20385;-34
2022/02/21 08:23:06;;;;;;;13.20;1.70;;;6.00;99.90;;;;;;5074156;28;20162;-35
2022/02/21 08:25:31;;;;;;;19.13;2.50;;;5.70;99.90;;;;;;5075558;28;20036;-32
2022/02/21 08:27:57;;;;;;;12.90;1.85;;;5.40;99.90;;;;;;5073648;28;20484;-32
2022/02/21 08:30:23;;;;;;;9.32;1.38;;;5.30;99.90;;;;;;5073968;28;20036;-37
2022/02/21 08:32:50;;;;;;;8.38;2.08;;;5.20;99.90;;;;;;5073731;28;20025;-37
2022/02/21 08:35:16;;;;;;;13.88;1.55;;;5.10;99.90;;;;;;5074506;28;20151;-37
2022/02/21 08:37:43;;;;;;;10.00;1.50;;;5.10;99.90;;;;;;5059670;28;20036;-37
2022/02/21 08:40:11;;;;;;;11.50;2.50;;;5.10;99.90;;;;;;5073892;28;20016;-33
2022/02/21 08:42:38;;;;;;;17.33;1.75;;;5.00;99.90;;;;;;5074913;28;20032;-35
2022/02/21 08:45:05;;;;;;;12.60;2.08;;;5.00;99.90;;;;;;5075849;28;20021;-33
2022/02/21 08:47:30;;;;;;;10.05;1.48;;;5.00;99.90;;;;;;5075394;28;20481;-31
2022/02/21 08:49:56;;;;;;;6.95;1.77;;;4.90;99.90;;;;;;5075194;28;20090;-35
2022/02/21 08:52:21;;;;;;;15.55;1.58;;;4.90;99.90;;;;;;5074989;28;20029;-32
2022/02/21 08:54:47;;;;;;;17.35;2.88;;;4.90;99.90;;;;;;5069326;28;20024;-31
2022/02/21 08:57:13;;;;;;;17.42;2.97;;;4.90;99.90;;;;;;5071727;28;20056;-34
2022/02/21 08:59:39;;;;;;;12.10;2.10;;;4.90;99.90;;;;;;5055356;28;20029;-31
2022/02/21 09:02:04;;;;;;;8.55;1.83;;;4.80;99.90;;;;;;5055773;28;20017;-31
2022/02/21 09:04:30;;;;;;;14.30;1.65;;;4.90;99.90;;;;;;5055527;28;20029;-31
2022/02/21 09:06:56;;;;;;;32.15;2.55;;;4.90;99.90;;;;;;5054348;28;20033;-34
2022/02/21 09:09:25;;;;;;;20.95;1.80;;;4.90;99.90;;;;;;5073036;28;20393;-33
2022/02/21 09:11:51;;;;;;;19.65;2.58;;;4.90;99.90;;;;;;5074867;28;20032;-38
2022/02/21 09:14:18;;;;;;;22.60;3.20;;;4.90;99.90;;;;;;5063267;28;20489;-32
2022/02/21 09:16:44;;;;;;;10.30;1.83;;;4.90;99.90;;;;;;5075326;28;20027;-33
2022/02/21 09:19:10;;;;;;;12.98;2.03;;;4.80;99.90;;;;;;5074409;28;20032;-31
2022/02/21 09:21:35;;;;;;;16.85;2.10;;;4.80;99.90;;;;;;5075448;28;20123;-31
2022/02/21 09:24:01;;;;;;;20.60;2.25;;;4.80;99.90;;;;;;5074939;28;20020;-32
2022/02/21 09:26:30;;;;;;;28.02;2.05;;;4.90;99.90;;;;;;5074638;28;20032;-35
2022/02/21 09:28:57;;;;;;;24.10;3.63;;;4.80;99.90;;;;;;5075074;28;20028;-34
2022/02/21 09:31:23;;;;;;;6.93;1.67;;;4.90;99.90;;;;;;5070751;28;20435;-38
2022/02/21 09:33:48;;;;;;;26.67;2.10;;;4.90;99.90;;;;;;5074389;28;20027;-32
2022/02/21 09:36:14;;;;;;;18.70;2.42;;;4.90;99.90;;;;;;5074836;28;20028;-35
2022/02/21 09:38:59;;;;;;;18.77;2.22;;;4.90;99.90;;;;;;5075497;28;20454;-30
2022/02/21 09:41:24;;;;;;;21.05;3.05;;;4.90;99.90;;;;;;5072216;28;20503;-33
2022/02/21 09:43:50;;;;;;;19.98;2.95;;;4.90;99.90;;;;;;5073626;28;20024;-32
2022/02/21 09:46:16;;;;;;;20.67;2.00;;;4.90;99.90;;;;;;5074633;28;20028;-31
2022/02/21 09:48:42;;;;;;;24.98;3.55;;;5.00;99.90;;;;;;5071783;28;20033;-35
2022/02/21 09:51:08;;;;;;;24.50;2.30;;;5.00;99.90;;;;;;5069358;28;20041;-34
2022/02/21 09:53:36;;;;;;;22.90;3.58;;;5.00;99.90;;;;;;5054826;28;20082;-36
2022/02/21 09:56:03;;;;;;;15.73;2.63;;;5.10;99.90;;;;;;5058879;28;20465;-31
2022/02/21 09:58:29;;;;;;;24.73;3.05;;;5.10;99.90;;;;;;5057612;28;20069;-36
2022/02/21 10:00:54;;;;;;;17.05;2.80;;;5.10;99.90;;;;;;5074441;28;20111;-32
2022/02/21 10:03:44;;;;;;;28.92;3.13;;;5.20;99.90;;;;;;5065178;28;20017;-36
2022/02/21 10:06:28;;;;;;;19.35;2.38;;;5.30;99.90;;;;;;5066333;28;20488;-33
2022/02/21 10:09:07;;;;;;;36.25;4.32;;;5.30;99.90;;;;;;5047890;28;20037;-32
2022/02/21 10:11:34;;;;;;;14.20;3.05;;;5.40;99.90;;;;;;5054228;28;20060;-35
2022/02/21 10:14:00;;;;;;;21.17;3.67;;;5.40;99.90;;;;;;5054894;28;20025;-30
2022/02/21 10:16:44;;;;;;;22.08;2.75;;;5.40;99.90;;;;;;5062883;28;20464;-31
2022/02/21 10:19:25;;;;;;;19.23;2.47;;;5.50;99.90;;;;;;5073396;28;20021;-34
2022/02/21 10:22:01;;;;;;;26.13;2.35;;;5.60;99.90;;;;;;5054442;28;20481;-44
2022/02/21 10:24:37;;;;;;;16.65;3.03;;;5.60;99.90;;;;;;5041712;28;20020;-34
2022/02/21 10:27:12;;;;;;;26.95;2.97;;;5.70;99.90;;;;;;5056016;28;20135;-35
2022/02/21 10:29:57;;;;;;;19.70;4.35;;;5.80;99.90;;;;;;5072216;28;20564;-35
2022/02/21 10:32:25;;;;;;;22.42;3.20;;;5.90;99.90;;;;;;5051793;28;20037;-35
2022/02/21 10:34:52;;;;;;;29.80;2.05;;;5.90;99.90;;;;;;5074099;28;20016;-35
2022/02/21 10:37:25;;;;;;;20.95;3.03;;;6.00;99.90;;;;;;5073125;28;20025;-33
2022/02/21 10:40:08;;;;;;;13.65;2.35;;;6.00;99.90;;;;;;5071821;28;20055;-31
2022/02/21 10:42:35;;;;;;;20.15;3.03;;;6.00;99.90;;;;;;5073819;28;20477;-33
2022/02/21 10:45:15;;;;;;;23.40;4.43;;;6.00;99.90;;;;;;5073376;28;20024;-34
2022/02/21 10:48:00;;;;;;;31.67;2.95;;;6.10;99.90;;;;;;5073828;28;20028;-32
2022/02/21 10:50:30;;;;;;;34.55;3.50;;;6.10;99.90;;;;;;5073282;28;20044;-32
2022/02/21 10:52:56;;;;;;;24.70;3.55;;;6.20;99.90;;;;;;5073684;28;20541;-33
2022/02/21 10:55:35;;;;;;;32.58;3.70;;;6.20;99.90;;;;;;5055366;28;20029;-39
2022/02/21 10:58:15;;;;;;;23.80;2.55;;;6.20;99.90;;;;;;5073434;28;20028;-30
2022/02/21 11:00:42;;;;;;;32.33;4.95;;;6.20;99.90;;;;;;5073141;28;20027;-34
2022/02/21 11:03:08;;;;;;;22.30;2.58;;;6.20;99.90;;;;;;5073464;28;20090;-32
2022/02/21 11:05:36;;;;;;;19.70;4.20;;;6.30;99.90;;;;;;5073193;28;20063;-36
2022/02/21 11:08:05;;;;;;;27.98;2.53;;;6.30;99.90;;;;;;5073466;28;20473;-35
2022/02/21 11:10:30;;;;;;;28.10;3.08;;;6.30;99.90;;;;;;5072912;28;20099;-34
2022/02/21 11:12:56;;;;;;;21.92;2.53;;;6.40;99.90;;;;;;5073041;28;20520;-31
2022/02/21 11:15:24;;;;;;;16.35;3.22;;;6.40;99.90;;;;;;5072983;28;20017;-33
2022/02/21 11:17:50;;;;;;;14.10;2.28;;;6.40;99.90;;;;;;5055065;28;20536;-33
2022/02/21 11:20:16;;;;;;;24.67;3.30;;;6.40;99.90;;;;;;5072956;28;20021;-30
2022/02/21 11:22:42;;;;;;;25.92;2.40;;;6.40;99.90;;;;;;5072910;28;20019;-34
2022/02/21 11:25:25;;;;;;;19.23;2.67;;;6.50;99.90;;;;;;5072825;28;20051;-35
2022/02/21 11:28:03;;;;;;;20.15;2.90;;;6.50;99.90;;;;;;5073171;28;20013;-33
2022/02/21 11:30:29;;;;;;;31.30;2.75;;;6.60;99.90;;;;;;5072748;28;20109;-34
2022/02/21 11:33:07;;;;;;;20.33;2.53;;;6.60;99.90;;;;;;5072750;28;20020;-49
2022/02/21 11:35:35;;;;;;;22.98;2.40;;;6.70;99.90;;;;;;5072690;28;20033;-37
2022/02/21 11:38:17;;;;;;;22.13;2.90;;;6.80;99.90;;;;;;5072803;28;20013;-46
2022/02/21 11:41:01;;;;;;;23.88;2.95;;;6.80;99.90;;;;;;5072726;28;20506;-30
2022/02/21 11:43:37;;;;;;;18.08;2.00;;;6.90;99.90;;;;;;5072388;28;20028;-46
2022/02/21 11:46:09;;;;;;;29.52;3.10;;;6.90;99.90;;;;;;5072943;28;20074;-43
2022/02/21 11:48:56;;;;;;;19.65;3.00;;;7.00;99.90;;;;;;5072550;28;20500;-57
2022/02/21 11:51:34;;;;;;;23.65;3.30;;;7.10;99.90;;;;;;5072216;28;20106;-33
2022/02/21 11:54:27;;;;;;;32.83;3.05;;;7.10;99.90;;;;;;5072504;28;20132;-33
2022/02/21 11:56:56;;;;;;;20.70;2.92;;;7.20;99.90;;;;;;5034397;28;20050;-30
2022/02/21 11:59:22;;;;;;;21.77;2.75;;;7.20;99.90;;;;;;5067460;28;20045;-31
2022/02/21 12:01:48;;;;;;;20.30;3.42;;;7.20;99.90;;;;;;5052441;28;20056;-32
2022/02/21 12:04:20;;;;;;;29.88;3.60;;;7.20;99.90;;;;;;5052680;28;20028;-34
2022/02/21 12:06:55;;;;;;;27.70;3.70;;;7.30;99.90;;;;;;5052586;28;20474;-34
2022/02/21 12:09:21;;;;;;;28.33;3.70;;;7.40;99.90;;;;;;5052615;28;20017;-31
2022/02/21 12:11:47;;;;;;;23.60;4.85;;;7.50;99.90;;;;;;5052324;28;20024;-34
2022/02/21 12:14:12;;;;;;;13.82;2.60;;;7.60;99.90;;;;;;5052331;28;20018;-32
2022/02/21 12:16:57;;;;;;;31.45;2.65;;;7.80;99.90;;;;;;5052524;28;20021;-32
2022/02/21 12:19:33;;;;;;;28.45;4.55;;;7.90;99.90;;;;;;5050603;28;20041;-32
2022/02/21 12:22:27;;;;;;;22.63;3.40;;;7.90;99.90;;;;;;5052594;28;20059;-39
2022/02/21 12:25:11;;;;;;;19.63;3.67;;;7.80;99.90;;;;;;5049154;28;20056;-32
2022/02/21 12:27:38;;;;;;;14.65;2.22;;;7.60;99.90;;;;;;5052166;28;20045;-29
2022/02/21 12:30:04;;;;;;;22.10;3.60;;;7.30;99.90;;;;;;5052345;28;20056;-33
2022/02/21 12:32:30;;;;;;;25.15;2.60;;;7.20;99.90;;;;;;5052008;28;20116;-33
2022/02/21 12:34:56;;;;;;;19.60;2.60;;;7.10;99.90;;;;;;5052117;28;20431;-32
2022/02/21 12:37:22;;;;;;;18.23;2.25;;;7.20;99.90;;;;;;5052062;28;20699;-30
2022/02/21 12:39:48;;;;;;;19.35;3.00;;;7.30;99.90;;;;;;5052016;28;20025;-30
2022/02/21 12:42:19;;;;;;;31.25;2.28;;;7.40;99.90;;;;;;5051988;28;20025;-35
2022/02/21 12:44:45;;;;;;;16.95;2.10;;;7.60;99.90;;;;;;5052030;28;20025;-33
2022/02/21 12:47:11;;;;;;;17.10;3.47;;;7.50;99.90;;;;;;5052004;28;20028;-29
2022/02/21 12:49:48;;;;;;;27.75;3.85;;;7.40;99.90;;;;;;5051910;28;20075;-32
2022/02/21 12:52:14;;;;;;;23.20;3.63;;;7.40;99.90;;;;;;5051710;28;20521;-28